Waite Park, Minnesota
Current Conditions -  °F | °C
As of 2:53 AM on Wednesday 26 Nov 2014 (Local Time) from KSTC Reporting Station
Overcast Overcast  
Wind Chill: 15°   Ceiling: 4100
Heat Index: 24°   Visibility: 10mi
Dew Point: 16°   Wind: 8mph
Humidity: 71%   Direction: 70°ENE
Pressure: 30.03"   Gusts: NA
Location:  45.55°N, 94.23°W
Report Text: KSTC 260853Z AUTO 07007KT 10SM OVC041 M04/M09 A3003 RMK AO2 SLP195 T10441089 53008
Loading
Personal Weather Stations






























Interactive Weather Map New forecast layout! Learn more

10-Day Weather Forecast

Advertisements
Track Severe Weather on mobile